This is the latest recevied weather packets stored in our database for station/object WQ5C-13. If no packets are shown the sender has not sent any weather packets the latest 10 day(s).
| Time | Temp. | Humidity | Pressure | Rain* | Wind** | Luminosity | Snow |
|---|---|---|---|---|---|---|---|
| 1778161815 | 14.44° C | 92% | 1017.3 hPa | 0 mm | - | - | - |
| 1778160016 | 15° C | 91% | 1017 hPa | 0 mm | - | - | - |
| 1778158815 | 15° C | 90% | 1017.1 hPa | 0 mm | - | - | - |
| 1778146215 | 16.11° C | 82% | 1014.8 hPa | 0 mm | - | - | - |
| 1778144456 | 16.11° C | 83% | 1014.8 hPa | 0 mm | - | - | - |
| 1778143815 | 16.11° C | 83% | 1014.6 hPa | 0 mm | - | - | - |
| 1778134836 | 16.67° C | 84% | 1014.9 hPa | 0 mm | - | - | - |
| 1778131815 | 16.67° C | 84% | 1014.2 hPa | 0 mm | - | - | - |
| 1778131215 | 16.67° C | 84% | 1014.3 hPa | 0 mm | - | - | - |
| 1778130636 | 16.67° C | 84% | 1014.3 hPa | 0 mm | - | - | - |
| 1778121615 | 17.22° C | 84% | 1013.4 hPa | 0 mm | - | - | - |
| 1778120415 | 17.22° C | 83% | 1013.2 hPa | 0 mm | - | - | - |
| 1778118015 | 17.22° C | 83% | 1012.5 hPa | 0 mm | - | - | - |
| 1778116815 | 17.22° C | 82% | 1012.7 hPa | 0 mm | - | - | - |
| 1778113216 | 18.33° C | 79% | 1011.4 hPa | 0 mm | - | - | - |
| 1778112016 | 18.89° C | 79% | 1011.3 hPa | 0 mm | - | - | - |
| 1778110215 | 20° C | 76% | 1011.1 hPa | 0 mm | - | - | - |
| 1778108415 | 21.11° C | 73% | 1010.7 hPa | 0 mm | - | - | - |
| 1778103016 | 24.44° C | 69% | 1010 hPa | 0 mm | - | - | - |
| 1778100015 | 25.56° C | 73% | 1010 hPa | 0 mm | - | - | - |
| 1778090416 | 25° C | 76% | 1010.9 hPa | 0.25 mm | - | - | - |
| 1778089815 | 25° C | 79% | 1010.9 hPa | 0 mm | - | - | - |
| 1778083815 | 22.78° C | 94% | 1011.6 hPa | 0 mm | - | - | - |
| 1778080215 | 22.22° C | 93% | 1010.6 hPa | 0.25 mm | - | - | - |
| 1778078415 | 22.22° C | 92% | 1010.4 hPa | 0 mm | - | - | - |
* Rain latest hour (hover to see other rain measurements)
** Current wind speed in m/s (hover to see current wind gust speed)